Forest Park, Ohio
Current Conditions -  °F | °C
As of 6:53 AM on Wednesday 28 Jan 2015 (Local Time) from KHAO Reporting Station
Haze Haze  
Wind Chill:   Ceiling: Unl
Heat Index:   Visibility: 5mi
Dew Point:   Wind: 0mph
Humidity: 88%   Direction: NA
Pressure: 30.36"   Gusts: NA
Location:  39.2843°N, 84.5257°W
Report Text: KHAO 281153Z AUTO 00000KT 5SM BR CLR M13/M14 A3036 RMK AO2 SLP294 I6000 T11281144 11106 21133 51015
Loading
Personal Weather Stations






























Interactive Weather Map New forecast layout! Learn more

10-Day Weather Forecast

Advertisements
Track Severe Weather on mobile